createdAt,value
2023-04-16T00:08:24.780Z,67.88
2023-04-16T00:18:46.174Z,67.79
2023-04-16T00:29:07.688Z,67.95
2023-04-16T00:39:28.876Z,67.97
2023-04-16T00:49:50.773Z,68.23
2023-04-16T01:00:13.665Z,68.03
2023-04-16T01:10:34.846Z,67.78
2023-04-16T01:20:56.306Z,68.10
2023-04-16T01:31:17.676Z,68.03
2023-04-16T01:41:46.937Z,68.14
2023-04-16T01:52:09.106Z,68.17
2023-04-16T02:02:31.258Z,68.08
2023-04-16T02:12:53.977Z,68.02
2023-04-16T02:23:15.555Z,67.79
2023-04-16T02:33:38.286Z,67.84
2023-04-16T02:43:59.476Z,67.92
2023-04-16T02:54:21.230Z,68.21
2023-04-16T03:04:42.745Z,68.13
2023-04-16T03:15:04.566Z,68.07
2023-04-16T03:25:25.683Z,67.80
2023-04-16T03:35:47.021Z,67.79
2023-04-16T03:46:09.436Z,67.56
2023-04-16T03:56:30.923Z,68.00
2023-04-16T04:06:52.196Z,68.07
2023-04-16T04:17:14.584Z,68.17
2023-04-16T04:27:36.084Z,67.70
2023-04-16T04:37:57.721Z,67.85
2023-04-16T04:48:19.095Z,67.94
2023-04-16T04:58:42.077Z,67.93
2023-04-16T05:09:03.703Z,68.17
2023-04-16T05:19:25.026Z,67.75
2023-04-16T05:29:46.066Z,68.21
2023-04-16T05:40:07.778Z,67.73
2023-04-16T05:50:29.154Z,67.67
2023-04-16T06:00:50.472Z,68.09
2023-04-16T06:11:11.950Z,67.90
2023-04-16T06:21:33.786Z,67.94
2023-04-16T06:31:55.129Z,67.41
2023-04-16T06:42:16.347Z,67.85
2023-04-16T06:52:37.634Z,67.65
2023-04-16T07:03:01.523Z,67.34
2023-04-16T07:13:23.353Z,66.98
2023-04-16T07:23:44.557Z,66.98
2023-04-16T07:34:06.295Z,66.91
2023-04-16T07:44:27.349Z,66.67
2023-04-16T07:54:48.562Z,66.44
2023-04-16T08:05:11.038Z,66.28
2023-04-16T08:15:32.691Z,66.26
2023-04-16T08:25:54.977Z,66.15
2023-04-16T08:36:16.305Z,66.33
2023-04-16T08:46:38.399Z,65.77
2023-04-16T08:57:00.086Z,65.83
2023-04-16T09:07:22.328Z,65.67
2023-04-16T09:17:43.315Z,65.36
2023-04-16T09:28:05.000Z,65.46
2023-04-16T09:38:26.856Z,65.37
2023-04-16T09:48:48.184Z,65.37
2023-04-16T09:59:12.307Z,65.92
2023-04-16T10:09:38.011Z,65.88
2023-04-16T10:20:00.591Z,66.13
2023-04-16T10:30:22.541Z,65.38
2023-04-16T10:40:45.215Z,65.60
2023-04-16T10:51:06.585Z,65.79
2023-04-16T11:01:33.145Z,65.58
2023-04-16T11:11:54.505Z,65.25
2023-04-16T11:22:17.659Z,64.94
2023-04-16T11:32:39.436Z,65.57
2023-04-16T11:43:13.990Z,65.02
2023-04-16T11:53:36.968Z,65.82
2023-04-16T12:04:02.625Z,65.81
2023-04-16T12:14:24.389Z,65.94
2023-04-16T12:24:45.831Z,66.05
2023-04-16T12:35:07.124Z,66.11
2023-04-16T12:45:29.003Z,66.51
2023-04-16T12:55:50.128Z,66.61
2023-04-16T13:06:11.199Z,67.19
2023-04-16T13:16:32.562Z,67.06
2023-04-16T13:26:54.045Z,66.54
2023-04-16T13:37:15.063Z,66.83
2023-04-16T13:47:36.726Z,66.58
2023-04-16T13:57:58.139Z,67.08
2023-04-16T14:08:21.466Z,66.27
2023-04-16T14:18:42.688Z,66.48
2023-04-16T14:29:04.039Z,67.03
2023-04-16T14:39:25.288Z,66.95
2023-04-16T14:49:46.320Z,66.60
2023-04-16T15:00:10.581Z,67.10
2023-04-16T15:10:31.747Z,67.33
2023-04-16T15:20:54.919Z,67.08
2023-04-16T15:31:16.374Z,67.19
2023-04-16T15:41:50.146Z,67.11
2023-04-16T15:52:20.207Z,67.17
2023-04-16T16:02:42.308Z,66.89
2023-04-16T16:13:05.762Z,66.89
2023-04-16T16:23:27.598Z,66.50
2023-04-16T16:33:49.066Z,66.79
2023-04-16T16:44:10.012Z,66.28
2023-04-16T16:54:31.543Z,66.70
2023-04-16T17:04:53.024Z,66.15
2023-04-16T17:15:14.644Z,65.87
2023-04-16T17:25:35.898Z,65.73
2023-04-16T17:35:57.161Z,66.59
2023-04-16T17:46:18.568Z,65.60
2023-04-16T17:56:39.978Z,65.72
2023-04-16T18:07:01.301Z,65.55
2023-04-16T18:17:23.045Z,65.53
2023-04-16T18:27:45.654Z,65.86
2023-04-16T18:38:06.867Z,66.05
2023-04-16T18:48:27.865Z,66.18
2023-04-16T18:58:49.565Z,65.61
2023-04-16T19:09:11.692Z,65.94
2023-04-16T19:19:33.301Z,66.11
2023-04-16T19:29:54.606Z,66.23
2023-04-16T19:40:15.612Z,65.99
2023-04-16T19:50:40.334Z,65.92
2023-04-16T20:01:01.700Z,66.97
2023-04-16T20:11:24.009Z,67.13
2023-04-16T20:21:45.789Z,67.20
2023-04-16T20:32:07.516Z,67.85
2023-04-16T20:42:32.277Z,67.55
2023-04-16T20:52:53.793Z,67.95
2023-04-16T21:03:15.690Z,68.25
2023-04-16T21:13:37.241Z,68.02
2023-04-16T21:23:58.504Z,67.81
2023-04-16T21:34:19.512Z,69.07
2023-04-16T21:44:40.857Z,68.40
2023-04-16T21:55:02.416Z,68.41
2023-04-16T22:05:25.270Z,68.44
2023-04-16T22:15:46.268Z,68.75
2023-04-16T22:26:08.563Z,68.70
2023-04-16T22:36:29.888Z,68.57
2023-04-16T22:46:51.181Z,68.87
2023-04-16T22:57:12.441Z,68.67
2023-04-16T23:07:33.704Z,68.63
2023-04-16T23:17:54.838Z,68.32
2023-04-16T23:28:15.977Z,68.58
2023-04-16T23:38:37.605Z,68.39
2023-04-16T23:48:58.782Z,68.17
2023-04-16T23:59:19.890Z,68.55
